Time;durP1;ratioP1;P1;durP2;ratioP2;P2;SDS_P1;SDS_P2;PMS_P1;PMS_P2;Temp;Humidity;BMP_temperature;BMP_pressure;BME280_temperature;BME280_humidity;BME280_pressure;Samples;Min_cycle;Max_cycle;Signal;HPM_P1;HPM_P2
2022/04/30 00:02:12;;;;;;;5.90;4.73;;;15.30;66.10;;;;;;6175467;23;20382;-79
2022/04/30 00:04:46;;;;;;;5.38;4.47;;;15.30;65.70;;;;;;6150445;23;20437;-77
2022/04/30 00:07:19;;;;;;;5.90;4.25;;;15.30;66.00;;;;;;6175136;23;20385;-76
2022/04/30 00:09:48;;;;;;;4.93;4.43;;;15.30;65.40;;;;;;6174570;23;20389;-77
2022/04/30 00:12:16;;;;;;;7.35;5.25;;;15.30;65.30;;;;;;6174094;23;20897;-78
2022/04/30 00:14:44;;;;;;;6.03;4.50;;;15.30;65.60;;;;;;6174194;23;20751;-77
2022/04/30 00:17:13;;;;;;;4.50;3.90;;;15.20;64.20;;;;;;6174028;23;20385;-79
2022/04/30 00:19:40;;;;;;;3.80;3.50;;;15.20;63.80;;;;;;6172618;23;20378;-78
2022/04/30 00:22:08;;;;;;;7.43;4.35;;;15.30;63.90;;;;;;6174539;23;20382;-77
2022/04/30 00:24:35;;;;;;;5.50;4.90;;;15.30;64.10;;;;;;6173772;23;20409;-79
2022/04/30 00:27:03;;;;;;;5.53;5.03;;;15.30;66.70;;;;;;6151447;23;20373;-77
2022/04/30 00:29:31;;;;;;;4.93;4.53;;;15.30;69.40;;;;;;6174258;23;20370;-77
2022/04/30 00:32:01;;;;;;;6.82;5.03;;;15.30;69.00;;;;;;6151054;23;20374;-79
2022/04/30 00:34:29;;;;;;;4.78;4.38;;;15.30;69.00;;;;;;6174456;23;20711;-77
2022/04/30 00:36:56;;;;;;;5.63;5.07;;;15.30;69.00;;;;;;6150339;23;20374;-78
2022/04/30 00:39:23;;;;;;;5.35;4.43;;;15.30;69.30;;;;;;6174757;23;20850;-78
2022/04/30 00:41:50;;;;;;;5.32;4.82;;;15.20;68.70;;;;;;6173944;23;20381;-79
2022/04/30 00:44:18;;;;;;;4.35;3.60;;;15.00;68.10;;;;;;6174631;23;20429;-76
2022/04/30 00:46:45;;;;;;;3.80;3.42;;;15.00;66.50;;;;;;6149660;23;20379;-78
2022/04/30 00:49:13;;;;;;;3.63;3.33;;;15.00;66.00;;;;;;6174775;23;20833;-79
2022/04/30 00:51:43;;;;;;;5.53;3.80;;;15.00;64.90;;;;;;6148478;23;20416;-78
2022/04/30 00:54:12;;;;;;;5.03;3.45;;;15.10;64.20;;;;;;6174502;23;20429;-77
2022/04/30 00:56:55;;;;;;;6.45;3.88;;;15.10;64.10;;;;;;6149992;23;20839;-77
2022/04/30 00:59:24;;;;;;;5.13;4.25;;;15.10;64.90;;;;;;6174420;23;20707;-77
2022/04/30 01:01:51;;;;;;;5.43;3.80;;;15.10;66.20;;;;;;6174621;23;20378;-79
2022/04/30 01:04:21;;;;;;;4.35;3.47;;;15.10;65.00;;;;;;6176269;23;20460;-77
2022/04/30 01:06:56;;;;;;;3.75;3.40;;;15.10;64.90;;;;;;6152617;23;20838;-78
2022/04/30 01:09:31;;;;;;;5.57;3.92;;;15.10;65.20;;;;;;6154124;23;20374;-78
2022/04/30 01:12:11;;;;;;;4.43;3.50;;;15.00;63.70;;;;;;6152455;23;20405;-79
2022/04/30 01:14:39;;;;;;;4.00;3.60;;;15.00;63.70;;;;;;6176953;23;20376;-78
2022/04/30 01:17:09;;;;;;;4.15;3.50;;;15.10;63.10;;;;;;6160052;23;20413;-77
2022/04/30 01:19:39;;;;;;;3.83;3.50;;;15.10;63.10;;;;;;6176641;23;20983;-78
2022/04/30 01:22:21;;;;;;;4.25;3.10;;;15.10;62.90;;;;;;6151773;23;20389;-77
2022/04/30 01:24:49;;;;;;;5.55;3.20;;;15.10;62.80;;;;;;6153212;23;20916;-78
2022/04/30 01:27:17;;;;;;;3.33;2.93;;;15.10;61.90;;;;;;6152473;23;20660;-78
2022/04/30 01:29:44;;;;;;;3.20;2.88;;;15.20;61.50;;;;;;6176904;23;20433;-77
2022/04/30 01:37:42;;;;;;;3.38;3.08;;;15.10;60.90;;;;;;6152746;23;20382;-78
2022/04/30 01:40:11;;;;;;;3.58;3.28;;;15.10;61.40;;;;;;6175465;23;20382;-76
2022/04/30 01:42:41;;;;;;;4.95;3.75;;;15.10;61.70;;;;;;6176462;23;20440;-77
2022/04/30 01:45:09;;;;;;;4.38;3.40;;;15.10;63.20;;;;;;6175286;23;20382;-79
2022/04/30 01:47:38;;;;;;;5.37;3.80;;;15.10;64.20;;;;;;6176834;23;20386;-78
2022/04/30 01:50:06;;;;;;;4.22;3.83;;;15.00;64.70;;;;;;6175428;23;20867;-78
2022/04/30 01:52:33;;;;;;;4.38;3.63;;;15.00;63.40;;;;;;6176439;23;20396;-78
2022/04/30 01:55:00;;;;;;;4.40;4.00;;;15.00;64.50;;;;;;6175254;23;20436;-77
2022/04/30 01:57:28;;;;;;;7.65;4.70;;;15.00;65.90;;;;;;6176752;23;20382;-78
2022/04/30 02:00:00;;;;;;;5.35;4.45;;;14.90;67.10;;;;;;6175242;23;20378;-77
2022/04/30 02:02:32;;;;;;;4.20;3.80;;;14.80;67.00;;;;;;6176728;23;20374;-76
2022/04/30 02:05:05;;;;;;;4.95;4.50;;;14.80;67.00;;;;;;6151726;23;20433;-77
2022/04/30 02:07:34;;;;;;;5.95;4.60;;;14.80;67.00;;;;;;6177074;23;20780;-77
2022/04/30 02:10:02;;;;;;;5.55;4.35;;;14.70;67.70;;;;;;6152505;23;20386;-76
2022/04/30 02:12:33;;;;;;;5.22;4.70;;;14.70;68.10;;;;;;6176907;23;20377;-76
2022/04/30 02:15:00;;;;;;;4.75;4.20;;;14.60;69.40;;;;;;6150605;23;20442;-76
2022/04/30 02:17:29;;;;;;;5.00;4.60;;;14.70;69.10;;;;;;6175636;23;20370;-76
2022/04/30 02:22:51;;;;;;;3.97;3.55;;;14.60;68.90;;;;;;6153410;23;20461;-77
2022/04/30 02:25:19;;;;;;;5.82;4.22;;;14.60;67.50;;;;;;6175991;23;20374;-78
2022/04/30 02:27:51;;;;;;;4.18;3.88;;;14.70;67.40;;;;;;6164766;23;20417;-79
2022/04/30 02:30:21;;;;;;;3.92;3.53;;;14.70;66.80;;;;;;6175359;23;20841;-78
2022/04/30 02:32:51;;;;;;;3.38;3.08;;;14.70;65.70;;;;;;6174987;23;20386;-78
2022/04/30 02:35:24;;;;;;;4.10;3.70;;;14.70;64.70;;;;;;6154170;23;20455;-78
2022/04/30 02:37:54;;;;;;;3.90;3.27;;;14.70;64.70;;;;;;6177793;23;20418;-77
2022/04/30 02:40:24;;;;;;;3.33;3.03;;;14.70;65.00;;;;;;6175820;23;20405;-77
2022/04/30 02:42:52;;;;;;;2.90;2.70;;;14.70;64.40;;;;;;6176885;23;20382;-79
2022/04/30 02:45:22;;;;;;;4.50;2.63;;;14.70;64.20;;;;;;6152272;23;20381;-76
2022/04/30 02:47:53;;;;;;;2.35;2.13;;;14.80;63.90;;;;;;6174527;23;20405;-77
2022/04/30 02:50:22;;;;;;;3.20;2.40;;;14.70;63.40;;;;;;6175454;23;20400;-78
2022/04/30 02:52:50;;;;;;;3.50;2.33;;;14.80;62.90;;;;;;6176304;23;20378;-76
2022/04/30 02:55:17;;;;;;;3.17;2.38;;;14.70;62.20;;;;;;6152320;23;20445;-76
2022/04/30 03:00:40;;;;;;;2.85;2.33;;;14.60;62.20;;;;;;6122945;23;20841;-76
2022/04/30 03:03:08;;;;;;;2.80;2.25;;;14.60;62.20;;;;;;6123445;23;20712;-77
2022/04/30 03:05:36;;;;;;;4.18;2.22;;;14.60;62.20;;;;;;6151190;23;20460;-78
2022/04/30 03:08:09;;;;;;;2.45;2.05;;;14.60;62.00;;;;;;6153191;23;20432;-77
2022/04/30 03:10:36;;;;;;;2.17;1.98;;;14.60;62.20;;;;;;6174099;23;20428;-76
2022/04/30 03:13:02;;;;;;;4.15;2.30;;;14.70;62.30;;;;;;6175227;23;20378;-77
2022/04/30 03:15:30;;;;;;;3.65;2.35;;;14.60;62.50;;;;;;6174861;23;20453;-76
2022/04/30 03:23:28;;;;;;;4.38;3.10;;;14.60;64.50;;;;;;6151217;23;20842;-78
2022/04/30 03:25:55;;;;;;;3.28;2.47;;;14.50;64.40;;;;;;6173936;23;20401;-78
2022/04/30 03:28:22;;;;;;;3.65;2.58;;;14.50;62.50;;;;;;6151437;23;20382;-77
2022/04/30 03:30:49;;;;;;;3.85;2.63;;;14.40;61.80;;;;;;6174286;23;20396;-77
2022/04/30 03:33:16;;;;;;;4.03;2.78;;;14.40;61.10;;;;;;6175712;23;20442;-79
2022/04/30 03:35:44;;;;;;;5.03;2.70;;;14.40;60.00;;;;;;6157500;23;20399;-77
2022/04/30 03:38:11;;;;;;;5.00;3.10;;;14.30;60.00;;;;;;6145493;23;20417;-76
2022/04/30 03:40:41;;;;;;;5.00;3.27;;;14.30;59.80;;;;;;6149557;23;20439;-76
2022/04/30 03:43:08;;;;;;;4.53;3.72;;;14.40;59.20;;;;;;6152378;23;20383;-77
2022/04/30 03:45:36;;;;;;;4.63;3.33;;;14.40;58.20;;;;;;6160717;23;20376;-76
2022/04/30 03:48:04;;;;;;;3.40;3.03;;;14.50;57.90;;;;;;6174811;23;20378;-77
2022/04/30 03:50:31;;;;;;;4.07;3.25;;;14.50;58.10;;;;;;6174976;23;20369;-77
2022/04/30 03:52:58;;;;;;;4.15;3.20;;;14.50;58.20;;;;;;6175593;23;20378;-77
2022/04/30 03:55:26;;;;;;;3.92;3.40;;;14.60;58.50;;;;;;6149930;23;20380;-78
2022/04/30 03:57:56;;;;;;;3.28;2.97;;;14.60;58.10;;;;;;6152585;23;20370;-78
2022/04/30 04:00:23;;;;;;;4.60;3.20;;;14.60;58.20;;;;;;6174808;23;20374;-77
2022/04/30 04:02:51;;;;;;;5.55;3.85;;;14.60;60.10;;;;;;6156343;23;20761;-78
2022/04/30 04:05:18;;;;;;;5.47;3.50;;;14.50;58.20;;;;;;6169586;23;20426;-77
2022/04/30 04:07:45;;;;;;;5.05;3.78;;;14.50;57.40;;;;;;6174642;23;20370;-76
2022/04/30 04:10:12;;;;;;;5.03;3.90;;;14.60;57.20;;;;;;6174741;23;20382;-76
2022/04/30 04:12:42;;;;;;;5.05;3.60;;;14.60;57.00;;;;;;6175033;23;20374;-78
2022/04/30 04:17:55;;;;;;;4.13;3.20;;;14.60;59.00;;;;;;6151672;23;20700;-77
2022/04/30 04:20:25;;;;;;;4.82;3.72;;;14.60;58.10;;;;;;6174475;23;20437;-76
2022/04/30 04:22:55;;;;;;;3.67;3.38;;;14.60;58.10;;;;;;6173764;23;20378;-76
2022/04/30 04:28:07;;;;;;;4.68;3.83;;;14.60;58.50;;;;;;6151120;23;20917;-77
2022/04/30 04:30:35;;;;;;;4.00;3.60;;;14.60;59.70;;;;;;6151888;23;20406;-76
2022/04/30 04:33:02;;;;;;;3.83;3.53;;;14.60;60.30;;;;;;6175113;23;20373;-76
2022/04/30 04:35:29;;;;;;;5.10;3.90;;;14.60;60.60;;;;;;6151677;23;20755;-77
2022/04/30 04:37:56;;;;;;;7.13;4.28;;;14.70;60.90;;;;;;6174106;23;20373;-77
2022/04/30 04:40:23;;;;;;;4.88;4.07;;;14.60;61.20;;;;;;6175403;23;20450;-78
2022/04/30 04:42:50;;;;;;;5.47;3.90;;;14.60;60.30;;;;;;6150759;23;20436;-78
2022/04/30 04:45:17;;;;;;;4.65;3.67;;;14.60;59.90;;;;;;6151534;23;20382;-77
2022/04/30 04:47:49;;;;;;;4.93;4.07;;;14.60;60.00;;;;;;6173544;23;20374;-77
2022/04/30 04:50:17;;;;;;;4.70;4.27;;;14.60;59.90;;;;;;6175543;23;20486;-76
2022/04/30 04:52:44;;;;;;;4.85;4.00;;;14.60;59.20;;;;;;6151580;23;20901;-77
2022/04/30 04:55:11;;;;;;;4.55;4.15;;;14.60;59.00;;;;;;6150875;23;20373;-77
2022/04/30 04:57:38;;;;;;;5.43;3.88;;;14.60;59.00;;;;;;6174345;23;20394;-77
2022/04/30 05:00:07;;;;;;;4.22;3.83;;;14.60;58.70;;;;;;6174581;23;20436;-77
2022/04/30 05:02:35;;;;;;;4.00;3.67;;;14.60;58.10;;;;;;6151605;23;20374;-78
2022/04/30 05:05:03;;;;;;;4.75;3.75;;;14.70;58.50;;;;;;6150066;23;20457;-77
2022/04/30 05:07:29;;;;;;;5.38;3.97;;;14.60;58.30;;;;;;6152176;23;20370;-78
2022/04/30 05:09:56;;;;;;;5.65;4.25;;;14.60;58.90;;;;;;6150293;23;20457;-77
2022/04/30 05:12:23;;;;;;;5.00;4.18;;;14.60;59.30;;;;;;6174997;23;20377;-78
2022/04/30 05:14:53;;;;;;;3.80;3.40;;;14.60;58.60;;;;;;6173408;23;20448;-77
2022/04/30 05:17:21;;;;;;;4.40;3.97;;;14.60;58.50;;;;;;6174146;23;20432;-77
2022/04/30 05:19:48;;;;;;;5.60;3.88;;;14.70;59.10;;;;;;6173379;23;20396;-78
2022/04/30 05:22:15;;;;;;;4.50;3.80;;;14.70;58.80;;;;;;6149997;23;20467;-76
2022/04/30 05:24:42;;;;;;;4.43;3.75;;;14.70;58.10;;;;;;6174879;23;20772;-77
2022/04/30 05:27:09;;;;;;;5.75;3.85;;;14.80;57.90;;;;;;6149657;23;20381;-77
2022/04/30 05:29:36;;;;;;;6.18;3.80;;;14.80;58.90;;;;;;6150123;23;20370;-76
2022/04/30 05:32:04;;;;;;;4.40;3.70;;;14.80;58.30;;;;;;6174075;23;20370;-78
2022/04/30 05:34:31;;;;;;;5.85;3.72;;;14.80;58.40;;;;;;6149058;23;20382;-76
2022/04/30 05:36:59;;;;;;;5.10;3.50;;;14.80;58.50;;;;;;6149295;23;20444;-78
2022/04/30 05:39:26;;;;;;;6.15;3.97;;;14.90;59.00;;;;;;6174080;23;20378;-77
2022/04/30 05:41:53;;;;;;;3.97;3.60;;;14.90;58.90;;;;;;6150726;23;20382;-77
2022/04/30 05:44:20;;;;;;;4.83;3.83;;;15.00;58.90;;;;;;6173668;23;20378;-77
2022/04/30 05:46:47;;;;;;;4.20;3.40;;;15.00;59.10;;;;;;6173634;23;20385;-78
2022/04/30 05:49:14;;;;;;;4.28;3.17;;;15.00;58.60;;;;;;6176727;23;20366;-77
2022/04/30 05:51:42;;;;;;;3.65;2.78;;;15.00;58.20;;;;;;6151608;23;20421;-77
2022/04/30 05:54:08;;;;;;;4.15;3.40;;;15.10;58.60;;;;;;6153550;23;20366;-77
2022/04/30 05:56:35;;;;;;;4.05;3.65;;;15.10;59.30;;;;;;6151416;23;20703;-77
2022/04/30 05:59:03;;;;;;;5.07;3.67;;;15.20;59.80;;;;;;6151183;23;20835;-77
2022/04/30 06:01:30;;;;;;;4.43;3.92;;;15.20;61.20;;;;;;6152350;23;20391;-78
2022/04/30 06:03:57;;;;;;;5.18;4.40;;;15.20;62.00;;;;;;6153190;23;20445;-77
2022/04/30 06:06:24;;;;;;;7.25;4.00;;;15.10;64.00;;;;;;6175749;23;20401;-77
2022/04/30 06:08:51;;;;;;;4.82;4.40;;;15.00;64.00;;;;;;6152598;23;20374;-77
2022/04/30 06:11:18;;;;;;;4.68;3.83;;;15.00;64.00;;;;;;6175750;23;20381;-78
2022/04/30 06:13:44;;;;;;;5.20;4.45;;;15.00;64.50;;;;;;6176707;23;20756;-78
2022/04/30 06:16:11;;;;;;;5.80;4.20;;;15.10;64.20;;;;;;6152415;23;20366;-77
2022/04/30 06:18:38;;;;;;;4.50;4.00;;;15.20;64.50;;;;;;6150760;23;20382;-78
2022/04/30 06:21:25;;;;;;;4.95;4.13;;;15.30;64.90;;;;;;6152115;23;20479;-78
2022/04/30 06:23:52;;;;;;;5.75;3.90;;;15.30;64.20;;;;;;6175875;23;20754;-77
2022/04/30 06:26:19;;;;;;;4.22;3.58;;;15.40;63.20;;;;;;6164590;23;20831;-77
2022/04/30 06:28:46;;;;;;;4.72;4.07;;;15.40;64.00;;;;;;6151497;23;20378;-77
2022/04/30 06:31:13;;;;;;;4.18;3.72;;;15.50;63.60;;;;;;6175366;23;20831;-77
2022/04/30 06:33:40;;;;;;;8.25;4.60;;;15.60;63.80;;;;;;6177811;23;20429;-77
2022/04/30 06:36:07;;;;;;;5.20;4.60;;;15.70;63.90;;;;;;6176249;23;20767;-77
2022/04/30 06:38:34;;;;;;;5.05;4.40;;;15.80;64.40;;;;;;6176114;23;20684;-79
2022/04/30 06:41:01;;;;;;;5.45;4.53;;;15.70;66.00;;;;;;6175851;23;20433;-77
2022/04/30 06:43:28;;;;;;;5.03;4.53;;;15.60;66.50;;;;;;6174860;23;20408;-78
2022/04/30 06:45:55;;;;;;;5.80;4.30;;;15.50;66.60;;;;;;6175668;23;20385;-77
2022/04/30 06:48:22;;;;;;;4.65;4.25;;;15.50;65.40;;;;;;6175562;23;20375;-77
2022/04/30 06:50:49;;;;;;;5.30;4.47;;;15.60;64.90;;;;;;6175914;23;20857;-77
2022/04/30 06:58:59;;;;;;;5.30;4.72;;;15.60;62.90;;;;;;6151746;23;20437;-77
2022/04/30 07:01:42;;;;;;;6.43;4.60;;;15.70;62.50;;;;;;6174910;23;20495;-78
2022/04/30 07:04:10;;;;;;;5.70;4.32;;;15.80;62.40;;;;;;6174796;23;20377;-77
2022/04/30 07:06:38;;;;;;;4.82;4.18;;;15.80;60.70;;;;;;6174523;23;20415;-77
2022/04/30 07:09:07;;;;;;;4.82;3.85;;;15.80;60.30;;;;;;6175638;23;20400;-77
2022/04/30 07:11:34;;;;;;;5.15;4.60;;;15.90;61.00;;;;;;6151227;23;20378;-77
2022/04/30 07:14:01;;;;;;;6.57;4.20;;;15.90;60.00;;;;;;6175894;23;20382;-77
2022/04/30 07:16:28;;;;;;;5.43;4.18;;;16.00;59.30;;;;;;6174760;23;20877;-77
2022/04/30 07:18:55;;;;;;;7.68;5.47;;;16.10;59.30;;;;;;6176802;23;20382;-78
2022/04/30 07:21:23;;;;;;;7.95;5.55;;;16.20;57.80;;;;;;6175540;23;20374;-77
2022/04/30 07:23:51;;;;;;;9.05;6.43;;;16.20;57.40;;;;;;6175163;23;20394;-78
2022/04/30 07:26:18;;;;;;;7.10;5.15;;;16.30;56.00;;;;;;6175473;23;20381;-78
2022/04/30 07:28:46;;;;;;;4.88;4.38;;;16.50;56.00;;;;;;6151173;23;20385;-79
2022/04/30 07:31:13;;;;;;;6.30;4.50;;;16.60;56.50;;;;;;6175488;23;20711;-77
2022/04/30 07:33:41;;;;;;;5.18;4.00;;;16.70;55.90;;;;;;6174322;23;20382;-78
2022/04/30 07:36:08;;;;;;;4.05;3.45;;;16.80;55.90;;;;;;6151578;23;20389;-77
2022/04/30 07:38:34;;;;;;;3.90;3.50;;;16.90;55.20;;;;;;6151586;23;20371;-76
2022/04/30 07:41:01;;;;;;;4.63;3.60;;;17.00;54.50;;;;;;6175561;23;20901;-79
2022/04/30 07:43:29;;;;;;;5.43;3.60;;;17.10;53.40;;;;;;6174386;23;20921;-77
2022/04/30 07:45:55;;;;;;;3.50;3.20;;;17.10;52.60;;;;;;6151532;23;20386;-79
2022/04/30 07:48:22;;;;;;;5.57;3.50;;;17.20;53.30;;;;;;6175549;23;20437;-77
2022/04/30 07:50:51;;;;;;;3.30;2.95;;;17.30;52.80;;;;;;6173906;23;20707;-78
2022/04/30 07:53:18;;;;;;;4.72;3.38;;;17.30;51.00;;;;;;6150619;23;20382;-79
2022/04/30 07:55:45;;;;;;;6.15;3.92;;;17.20;50.80;;;;;;6174670;23;20421;-79
2022/04/30 07:58:12;;;;;;;7.05;4.45;;;17.30;50.80;;;;;;6174426;23;20395;-80
2022/04/30 08:00:39;;;;;;;4.25;3.22;;;17.40;49.00;;;;;;6173857;23;20733;-77
2022/04/30 08:03:06;;;;;;;4.35;3.95;;;17.50;48.40;;;;;;6175003;23;20366;-79
2022/04/30 08:05:34;;;;;;;5.55;3.70;;;17.60;48.70;;;;;;6174607;23;20390;-77
2022/04/30 08:08:01;;;;;;;6.25;4.20;;;17.60;48.60;;;;;;6174859;23;20366;-77
2022/04/30 08:10:29;;;;;;;7.50;4.60;;;17.70;47.70;;;;;;6175273;23;20496;-78
2022/04/30 08:12:57;;;;;;;6.57;4.27;;;17.70;48.80;;;;;;6174714;23;20370;-77
2022/04/30 08:15:24;;;;;;;5.80;4.35;;;17.80;48.90;;;;;;6151400;23;20406;-78
2022/04/30 08:17:52;;;;;;;5.80;4.63;;;18.00;48.60;;;;;;6174676;23;20385;-79
2022/04/30 08:20:20;;;;;;;6.80;4.65;;;18.10;48.30;;;;;;6174572;23;20381;-78
2022/04/30 08:22:47;;;;;;;6.03;4.47;;;17.90;48.20;;;;;;6174082;23;20374;-77
2022/04/30 08:25:13;;;;;;;6.13;4.95;;;17.90;48.80;;;;;;6174470;23;20373;-79
2022/04/30 08:27:41;;;;;;;5.82;4.65;;;18.00;48.70;;;;;;6174231;23;20429;-79
2022/04/30 08:30:10;;;;;;;6.30;4.40;;;18.20;48.40;;;;;;6175205;23;20691;-79
2022/04/30 08:32:37;;;;;;;9.00;4.70;;;18.40;48.50;;;;;;6173672;23;20401;-78
2022/04/30 08:35:05;;;;;;;6.47;5.18;;;18.70;49.70;;;;;;6175115;23;20901;-78
2022/04/30 08:37:52;;;;;;;6.45;5.05;;;18.90;44.70;;;;;;6145597;23;20372;-77
2022/04/30 08:40:19;;;;;;;5.88;5.13;;;19.10;43.70;;;;;;6175579;23;20370;-76
2022/04/30 08:42:46;;;;;;;7.93;5.85;;;19.20;41.50;;;;;;6173933;23;20366;-77
2022/04/30 08:45:13;;;;;;;11.73;5.47;;;19.40;40.70;;;;;;6174527;23;20374;-78
2022/04/30 08:47:42;;;;;;;7.35;5.55;;;19.70;39.50;;;;;;6173033;23;20378;-78
2022/04/30 08:50:10;;;;;;;9.57;5.30;;;19.90;41.70;;;;;;6174856;23;20421;-78
2022/04/30 08:52:38;;;;;;;5.18;4.65;;;20.20;39.30;;;;;;6174245;23;20905;-78
2022/04/30 08:55:06;;;;;;;8.50;5.93;;;20.30;40.50;;;;;;6175169;23;20394;-77
2022/04/30 08:57:34;;;;;;;7.22;5.68;;;20.50;39.60;;;;;;6175074;23;20375;-78
2022/04/30 09:00:04;;;;;;;9.38;6.25;;;20.70;40.50;;;;;;6148974;23;20465;-80
2022/04/30 09:02:31;;;;;;;8.30;6.07;;;20.40;42.50;;;;;;6151609;23;20426;-78
2022/04/30 09:04:59;;;;;;;9.80;6.25;;;20.10;41.40;;;;;;6173662;23;20378;-78
2022/04/30 09:07:26;;;;;;;10.60;7.03;;;19.70;42.40;;;;;;6151804;23;20771;-80
2022/04/30 09:10:01;;;;;;;9.38;6.28;;;19.50;39.60;;;;;;6174112;23;20425;-77
2022/04/30 09:12:29;;;;;;;9.10;6.38;;;18.90;38.50;;;;;;6174227;23;20374;-78
2022/04/30 09:14:58;;;;;;;8.40;6.70;;;19.10;41.50;;;;;;6174106;23;20378;-78
2022/04/30 09:17:27;;;;;;;10.05;6.72;;;19.40;41.80;;;;;;6175180;23;20421;-78
2022/04/30 09:19:56;;;;;;;7.60;6.40;;;19.50;39.50;;;;;;6173872;23;20433;-78
2022/04/30 09:22:30;;;;;;;7.35;6.40;;;19.70;40.30;;;;;;6174006;23;20374;-80
2022/04/30 09:24:58;;;;;;;7.63;6.00;;;19.80;39.60;;;;;;6150862;23;21175;-80
2022/04/30 09:27:54;;;;;;;8.02;6.18;;;20.00;41.40;;;;;;6152414;23;20412;-80
2022/04/30 09:30:27;;;;;;;10.40;5.82;;;20.20;38.20;;;;;;6176672;23;20397;-80
2022/04/30 09:33:02;;;;;;;5.20;4.40;;;20.30;40.70;;;;;;6176050;23;20397;-78
2022/04/30 09:38:17;;;;;;;5.00;4.13;;;20.70;39.70;;;;;;6135905;23;20450;-80
2022/04/30 09:40:55;;;;;;;3.92;3.53;;;20.70;37.50;;;;;;6146471;23;20384;-78
2022/04/30 09:43:29;;;;;;;4.63;3.65;;;20.40;36.80;;;;;;6153658;23;20366;-80
2022/04/30 09:46:06;;;;;;;4.53;3.33;;;20.40;37.30;;;;;;6174368;23;20715;-78
2022/04/30 09:54:06;;;;;;;4.72;2.90;;;19.90;38.30;;;;;;6152535;23;20374;-78
2022/04/30 09:56:44;;;;;;;3.57;2.77;;;19.90;39.60;;;;;;6175858;23;20465;-80
2022/04/30 09:59:13;;;;;;;2.85;2.50;;;20.20;36.70;;;;;;6175811;23;20390;-78
2022/04/30 10:01:43;;;;;;;6.13;2.90;;;19.80;36.80;;;;;;6175827;23;20834;-78
2022/04/30 10:04:12;;;;;;;3.55;2.30;;;20.00;36.80;;;;;;6175574;23;20755;-78
2022/04/30 10:06:46;;;;;;;5.05;2.50;;;19.60;35.90;;;;;;6175840;23;20386;-79
2022/04/30 10:09:29;;;;;;;4.30;2.28;;;19.90;36.80;;;;;;6174829;23;20845;-78
2022/04/30 10:12:14;;;;;;;2.80;2.13;;;20.10;36.60;;;;;;6175808;23;20456;-78
2022/04/30 10:15:19;;;;;;;3.80;3.00;;;20.40;36.30;;;;;;6174576;23;20373;-80
2022/04/30 10:17:52;;;;;;;4.43;3.47;;;20.00;35.60;;;;;;6175570;23;20747;-77
2022/04/30 10:20:28;;;;;;;5.18;3.35;;;19.90;37.00;;;;;;6175904;23;20382;-78
2022/04/30 10:22:58;;;;;;;5.72;3.35;;;19.90;38.60;;;;;;6138799;23;20381;-78
2022/04/30 10:25:32;;;;;;;4.13;3.00;;;20.10;37.20;;;;;;6175994;23;20381;-78
2022/04/30 10:28:02;;;;;;;3.80;3.40;;;20.40;38.80;;;;;;6175970;23;21201;-78
2022/04/30 10:30:29;;;;;;;5.30;3.28;;;20.70;37.50;;;;;;6176055;23;20755;-80
2022/04/30 10:33:06;;;;;;;4.87;3.43;;;20.90;37.00;;;;;;6175659;23;20362;-77
2022/04/30 10:35:40;;;;;;;5.63;3.58;;;20.90;36.10;;;;;;6175644;23;20385;-79
2022/04/30 10:38:20;;;;;;;7.10;3.73;;;21.00;37.30;;;;;;6175450;23;20362;-80
2022/04/30 10:40:52;;;;;;;5.03;4.20;;;21.30;36.50;;;;;;6175179;23;20429;-78
2022/04/30 10:43:26;;;;;;;5.47;4.15;;;21.50;36.60;;;;;;6175221;23;20511;-80
2022/04/30 10:45:57;;;;;;;6.93;4.40;;;21.60;36.30;;;;;;6174501;23;20388;-77
2022/04/30 10:48:25;;;;;;;6.80;4.20;;;21.60;35.50;;;;;;6175602;23;20374;-78
2022/04/30 10:51:11;;;;;;;4.13;3.22;;;21.60;36.60;;;;;;6174503;23;20381;-78
2022/04/30 10:53:45;;;;;;;4.50;3.20;;;21.70;35.00;;;;;;6176523;23;20370;-78
2022/04/30 10:56:14;;;;;;;3.83;2.97;;;21.80;33.80;;;;;;6175166;23;20370;-78
2022/04/30 10:58:44;;;;;;;3.22;2.80;;;21.90;34.80;;;;;;6176035;23;20425;-78
2022/04/30 11:01:18;;;;;;;4.25;3.45;;;21.90;34.60;;;;;;6176537;23;20370;-79
2022/04/30 11:03:48;;;;;;;3.90;3.40;;;22.20;35.70;;;;;;6153869;23;20370;-80
2022/04/30 11:06:23;;;;;;;5.35;2.50;;;22.30;35.80;;;;;;6152094;23;20385;-79
2022/04/30 11:08:58;;;;;;;3.03;2.20;;;22.30;36.80;;;;;;6176632;23;20549;-78
2022/04/30 11:11:26;;;;;;;2.92;2.50;;;21.70;33.80;;;;;;6175999;23;20369;-78
2022/04/30 11:14:01;;;;;;;2.50;2.30;;;21.80;34.30;;;;;;6175092;23;20432;-79
2022/04/30 11:16:29;;;;;;;5.18;2.20;;;21.90;34.80;;;;;;6151696;23;20429;-77
2022/04/30 11:18:59;;;;;;;3.63;2.23;;;22.00;33.40;;;;;;6174748;23;20378;-79
2022/04/30 11:21:40;;;;;;;3.00;1.87;;;21.90;35.20;;;;;;6173877;23;20425;-79
2022/04/30 11:24:08;;;;;;;5.32;1.98;;;22.20;33.80;;;;;;6150998;23;20381;-78
2022/04/30 11:26:38;;;;;;;3.88;2.25;;;21.60;34.30;;;;;;6174398;23;20437;-78
2022/04/30 11:29:08;;;;;;;2.90;2.20;;;21.30;34.70;;;;;;6174381;23;20688;-78
2022/04/30 11:31:35;;;;;;;4.25;2.20;;;21.10;34.60;;;;;;6176631;23;20827;-78
2022/04/30 11:34:09;;;;;;;3.92;1.80;;;20.90;36.90;;;;;;6175817;23;20515;-78
2022/04/30 11:36:41;;;;;;;2.05;1.83;;;20.90;34.80;;;;;;6175022;23;20386;-78
2022/04/30 11:39:10;;;;;;;1.98;1.52;;;21.00;34.40;;;;;;6174901;23;20374;-78
2022/04/30 11:41:45;;;;;;;3.05;2.10;;;21.30;36.10;;;;;;6174315;23;20490;-78
2022/04/30 11:44:14;;;;;;;4.55;1.80;;;21.40;37.10;;;;;;6173992;23;20378;-79
2022/04/30 11:46:42;;;;;;;4.00;2.10;;;21.20;34.50;;;;;;6132178;23;20849;-79
2022/04/30 11:49:11;;;;;;;4.00;1.77;;;21.30;36.00;;;;;;6157500;23;20380;-78
2022/04/30 11:52:01;;;;;;;2.10;1.70;;;21.30;36.40;;;;;;6171125;23;20416;-77
2022/04/30 11:54:29;;;;;;;3.33;2.08;;;21.10;35.40;;;;;;6174446;23;20382;-78
2022/04/30 11:57:00;;;;;;;2.83;1.92;;;21.00;36.70;;;;;;6150265;23;20850;-77
2022/04/30 11:59:34;;;;;;;3.70;2.08;;;21.10;37.00;;;;;;6150649;23;22080;-78
2022/04/30 12:02:06;;;;;;;3.20;2.30;;;21.30;36.90;;;;;;6174153;23;20446;-80
2022/04/30 12:04:37;;;;;;;1.93;1.70;;;21.50;37.00;;;;;;6151170;23;20378;-79
2022/04/30 12:07:06;;;;;;;2.63;1.70;;;21.70;36.80;;;;;;6174832;23;20446;-79
2022/04/30 12:09:37;;;;;;;3.20;1.60;;;21.80;35.10;;;;;;6151155;23;20848;-78
2022/04/30 12:12:21;;;;;;;4.20;2.33;;;21.90;34.90;;;;;;6173825;23;20378;-78
2022/04/30 12:14:54;;;;;;;3.35;1.83;;;21.70;35.40;;;;;;6125475;23;20380;-78
2022/04/30 12:17:32;;;;;;;3.70;1.87;;;21.60;35.70;;;;;;6175313;23;20432;-78
2022/04/30 12:26:00;;;;;;;3.30;1.80;;;20.80;38.00;;;;;;6150947;23;20859;-77
2022/04/30 12:28:29;;;;;;;3.03;1.73;;;21.50;37.60;;;;;;6175606;23;20441;-78
2022/04/30 12:30:56;;;;;;;2.83;2.20;;;22.10;35.70;;;;;;6174414;23;20378;-79
2022/04/30 12:33:24;;;;;;;3.38;1.67;;;22.10;34.00;;;;;;6176006;23;20370;-78
2022/04/30 12:35:58;;;;;;;3.05;1.80;;;21.90;34.50;;;;;;6173225;23;20864;-78
2022/04/30 12:38:25;;;;;;;4.45;1.77;;;21.70;34.80;;;;;;6152391;23;20847;-79
2022/04/30 12:40:54;;;;;;;2.60;1.70;;;21.70;36.00;;;;;;6175809;23;20397;-78
2022/04/30 12:43:21;;;;;;;2.30;1.60;;;21.90;35.60;;;;;;6131380;23;20463;-80
2022/04/30 12:45:48;;;;;;;6.17;2.13;;;22.00;35.30;;;;;;6170547;23;20751;-79
2022/04/30 12:48:16;;;;;;;2.93;1.70;;;22.20;34.80;;;;;;6175063;23;20747;-79
2022/04/30 12:50:43;;;;;;;2.33;1.70;;;22.30;35.10;;;;;;6174121;23;20861;-79
2022/04/30 12:53:10;;;;;;;5.05;1.58;;;22.20;35.00;;;;;;6174187;23;20726;-78
2022/04/30 12:55:41;;;;;;;2.42;1.77;;;22.20;36.00;;;;;;6150469;23;20747;-77
2022/04/30 12:58:10;;;;;;;2.35;1.35;;;22.30;34.90;;;;;;6174659;23;20830;-78
2022/04/30 13:00:37;;;;;;;1.58;1.48;;;22.30;35.70;;;;;;6177301;23;20382;-79
2022/04/30 13:03:05;;;;;;;2.25;1.40;;;22.70;35.90;;;;;;6175454;23;20494;-79
2022/04/30 13:05:33;;;;;;;2.28;1.73;;;23.20;35.30;;;;;;6177233;23;20449;-80
2022/04/30 13:08:00;;;;;;;3.55;1.77;;;22.80;31.30;;;;;;6176110;23;20429;-78
2022/04/30 13:16:11;;;;;;;3.70;1.50;;;22.10;35.60;;;;;;6135818;23;20381;-78
2022/04/30 13:18:38;;;;;;;3.53;1.70;;;21.90;33.70;;;;;;6176703;23;21606;-78
2022/04/30 13:21:06;;;;;;;4.35;1.70;;;22.10;35.00;;;;;;6176471;23;20382;-78
2022/04/30 13:23:33;;;;;;;2.33;1.47;;;22.50;35.70;;;;;;6176009;23;20382;-80
2022/04/30 13:26:01;;;;;;;5.22;1.60;;;22.70;33.60;;;;;;6176372;23;20842;-79
2022/04/30 13:28:28;;;;;;;5.80;1.63;;;22.70;32.30;;;;;;6155883;23;20388;-79
2022/04/30 13:30:55;;;;;;;2.13;1.40;;;22.70;33.40;;;;;;6171809;23;20711;-79
2022/04/30 13:33:22;;;;;;;2.60;1.40;;;22.80;35.00;;;;;;6176735;23;20377;-80
2022/04/30 13:35:49;;;;;;;4.20;1.60;;;22.90;34.00;;;;;;6152350;23;20382;-78
2022/04/30 13:38:16;;;;;;;2.38;1.23;;;22.30;33.00;;;;;;6176415;23;20377;-78
2022/04/30 13:40:43;;;;;;;2.83;1.85;;;21.80;33.90;;;;;;6128895;23;20390;-79
2022/04/30 13:43:10;;;;;;;1.70;1.60;;;22.00;35.60;;;;;;6175150;23;20653;-78
2022/04/30 13:45:37;;;;;;;2.78;1.50;;;22.30;34.00;;;;;;6176376;23;20750;-78